Hector, New York
Current Conditions -  °F | °C
As of 4:53 AM on Thursday 23 Oct 2014 (Local Time) from KPEO Reporting Station
Broken Clouds Broken Clouds  
Wind Chill: 41°   Ceiling: 7500
Heat Index: 46°   Visibility: 10mi
Dew Point: 40°   Wind: 9mph
Humidity: 79%   Direction: 330°NNW
Pressure: 30.03"   Gusts: 22mph
Location:  42.5°N, 76.87°W
Report Text: KPEO 230853Z AUTO 33008G19KT 10SM SCT033 BKN075 08/04 A3003 RMK AO2 SLP174 T00780044 55008
Loading
Personal Weather Stations






























Interactive Weather Map
Tropical Storm Tracking
New forecast layout! Learn more

10-Day Weather Forecast

Advertisements
Track Severe Weather on mobile